Alexander Maersk — OZRC2 — position and weather

sailwx.info

Track history (hours):
 
Tides and Currents Weather Stations Pressure Air Temp Water Temp Dewpoint Dewpoint Depression Visibility Wind Speed Wind Dir Waves Ship Positions

Alexander Maersk

Last reported at 2016-Aug-24 04:33 UTC. Time now 2016-Aug-26 11:57 UTC.
Position N 35°42' E 014°36'.

Length 155 m; draft 8.5 m.

Type: Cargo ship. MMSI: 219470000.

Date/timePositionNaut miles runAvg speedWind from/ knotsBaromVisibWave heightAir tempDewpointWater temp
2016-Aug-24 04:33N 35°42' E 014°36'8 0.4
2016-Aug-23 08:08N 35°49' E 014°33'0 0.0
2016-Aug-23 07:26N 35°49' E 014°33'0 0.0
2016-Aug-22 17:08N 35°49' E 014°33'0 0.0
2016-Aug-22 16:32N 35°49' E 014°33'0 0.0
2016-Aug-22 15:32N 35°49' E 014°33'0 0.1
2016-Aug-22 13:33N 35°49' E 014°32'3 3.4
2016-Aug-22 12:34N 35°48' E 014°36'4 4.2
2016-Aug-22 11:31N 35°51' E 014°40'0 0.0
2016-Aug-22 10:31N 35°51' E 014°40'0 0.0
2016-Aug-22 09:31N 35°51' E 014°40'0 0.0
2016-Aug-22 08:31N 35°51' E 014°40'0 0.0
2016-Aug-22 07:31N 35°51' E 014°40'0 0.0
2016-Aug-22 06:31N 35°51' E 014°40'0 0.0
2016-Aug-22 05:28N 35°51' E 014°40'0 0.0
2016-Aug-22 04:28N 35°51' E 014°40'0 0.0
2016-Aug-22 03:31N 35°51' E 014°40'0 0.0
2016-Aug-22 02:31N 35°51' E 014°40'0 0.0
2016-Aug-22 01:31N 35°51' E 014°40'0 0.0
2016-Aug-22 00:31N 35°51' E 014°40'0 0.0
2016-Aug-21 23:31N 35°51' E 014°40'0 0.0
2016-Aug-21 22:31N 35°51' E 014°40'0 0.0
2016-Aug-21 21:31N 35°51' E 014°40'0 0.1
2016-Aug-21 20:31N 35°52' E 014°40'0 0.0
2016-Aug-21 19:31N 35°52' E 014°40'0 0.0
2016-Aug-21 18:31N 35°52' E 014°40'0 0.0
2016-Aug-21 17:31N 35°52' E 014°40'0 0.0
2016-Aug-21 16:31N 35°52' E 014°40'0 0.0
2016-Aug-21 15:31N 35°52' E 014°40'0 0.1
2016-Aug-21 14:28N 35°51' E 014°40'0 0.0
2016-Aug-21 13:28N 35°51' E 014°40'0 0.0
2016-Aug-21 12:31N 35°51' E 014°40'0 0.0
2016-Aug-21 11:31N 35°51' E 014°40'0 0.1
2016-Aug-21 10:31N 35°51' E 014°40'0 0.0
2016-Aug-21 09:31N 35°51' E 014°40'0 0.0
2016-Aug-21 08:31N 35°51' E 014°40'0 0.0
2016-Aug-21 07:31N 35°51' E 014°40'0 0.0
2016-Aug-21 06:31N 35°51' E 014°40'0 0.0
2016-Aug-21 05:31N 35°51' E 014°40'0 0.0
2016-Aug-21 04:31N 35°51' E 014°40'0 0.0
2016-Aug-21 03:31N 35°51' E 014°40'0 0.0
2016-Aug-21 02:28N 35°51' E 014°40'0 0.0
2016-Aug-21 01:31N 35°51' E 014°40'0 0.1
2016-Aug-21 00:31N 35°51' E 014°40'0 0.1
2016-Aug-20 23:31N 35°51' E 014°40'0 0.0
2016-Aug-20 22:31N 35°52' E 014°40'0 0.0
2016-Aug-20 21:31N 35°52' E 014°40'0 0.0
2016-Aug-20 20:31N 35°52' E 014°40'0 0.0
2016-Aug-20 19:31N 35°52' E 014°40'0 0.0
2016-Aug-20 18:28N 35°52' E 014°40'0 0.0
2016-Aug-20 17:28N 35°52' E 014°40'0 0.0
2016-Aug-20 16:31N 35°51' E 014°40'0 0.0
2016-Aug-20 15:28N 35°51' E 014°40'0 0.0
2016-Aug-20 14:25N 35°51' E 014°40'0 0.1
2016-Aug-20 13:33N 35°51' E 014°40'6 5.7
2016-Aug-20 12:34N 35°46' E 014°37'9 8.8
2016-Aug-20 11:33N 35°41' E 014°28'9 9.1
2016-Aug-20 10:33N 35°38' E 014°18'9 9.2
2016-Aug-20 09:33N 35°34' E 014°07'9 9.2
2016-Aug-20 08:34N 35°31' E 013°57'9 9.4
2016-Aug-20 07:34N 35°27' E 013°46'1414.1
2016-Aug-20 06:33N 35°21' E 013°31'1111.1
2016-Aug-20 05:33N 35°16' E 013°18'10 9.7
2016-Aug-20 04:33N 35°12' E 013°08'9 9.5
2016-Aug-20 03:33N 35°07' E 012°57'9 9.3
2016-Aug-20 02:33N 35°03' E 012°47'10 9.6
2016-Aug-20 01:33N 34°59' E 012°37'9 9.3
2016-Aug-20 00:33N 34°56' E 012°26'9 9.1
2016-Aug-19 23:33N 34°52' E 012°16'9 9.0
2016-Aug-19 22:33N 34°48' E 012°06'9 9.0
2016-Aug-19 21:33N 34°45' E 011°56'9 9.5
2016-Aug-19 20:33N 34°39' E 011°46'10 9.6
2016-Aug-19 19:33N 34°35' E 011°36'10 9.6
2016-Aug-19 18:33N 34°30' E 011°26'9 9.2
2016-Aug-19 17:33N 34°27' E 011°16'9 8.7
2016-Aug-19 16:33N 34°25' E 011°05'10 8.4
2016-Aug-19 15:24N 34°26' E 010°53'19 0.4
2016-Aug-17 11:28N 34°44' E 010°46'0 0.0
2016-Aug-16 22:19N 34°44' E 010°46'0 0.0
2016-Aug-16 21:28N 34°44' E 010°46'0 0.0
2016-Aug-16 18:19N 34°44' E 010°46'  
Track history (hours):
 
Tides and Currents Weather Stations Pressure Air Temp Water Temp Dewpoint Dewpoint Depression Visibility Wind Speed Wind Dir Waves Ship Positions

Alexander Maersk

Last reported at 2016-Aug-24 04:33 UTC. Time now 2016-Aug-26 11:57 UTC.
Position N 35°42' E 014°36'.

Length 155 m; draft 8.5 m.

Type: Cargo ship. MMSI: 219470000.

Date/timePositionNaut miles runAvg speedWind from/ knotsBaromVisibWave heightAir tempDewpointWater temp
2016-Aug-24 04:33N 35°42' E 014°36'8 0.4
2016-Aug-23 08:08N 35°49' E 014°33'0 0.0
2016-Aug-23 07:26N 35°49' E 014°33'0 0.0
2016-Aug-22 17:08N 35°49' E 014°33'0 0.0
2016-Aug-22 16:32N 35°49' E 014°33'0 0.0
2016-Aug-22 15:32N 35°49' E 014°33'0 0.1
2016-Aug-22 13:33N 35°49' E 014°32'3 3.4
2016-Aug-22 12:34N 35°48' E 014°36'4 4.2
2016-Aug-22 11:31N 35°51' E 014°40'0 0.0
2016-Aug-22 10:31N 35°51' E 014°40'0 0.0
2016-Aug-22 09:31N 35°51' E 014°40'0 0.0
2016-Aug-22 08:31N 35°51' E 014°40'0 0.0
2016-Aug-22 07:31N 35°51' E 014°40'0 0.0
2016-Aug-22 06:31N 35°51' E 014°40'0 0.0
2016-Aug-22 05:28N 35°51' E 014°40'0 0.0
2016-Aug-22 04:28N 35°51' E 014°40'0 0.0
2016-Aug-22 03:31N 35°51' E 014°40'0 0.0
2016-Aug-22 02:31N 35°51' E 014°40'0 0.0
2016-Aug-22 01:31N 35°51' E 014°40'0 0.0
2016-Aug-22 00:31N 35°51' E 014°40'0 0.0
2016-Aug-21 23:31N 35°51' E 014°40'0 0.0
2016-Aug-21 22:31N 35°51' E 014°40'0 0.0
2016-Aug-21 21:31N 35°51' E 014°40'0 0.1
2016-Aug-21 20:31N 35°52' E 014°40'0 0.0
2016-Aug-21 19:31N 35°52' E 014°40'0 0.0
2016-Aug-21 18:31N 35°52' E 014°40'0 0.0
2016-Aug-21 17:31N 35°52' E 014°40'0 0.0
2016-Aug-21 16:31N 35°52' E 014°40'0 0.0
2016-Aug-21 15:31N 35°52' E 014°40'0 0.1
2016-Aug-21 14:28N 35°51' E 014°40'0 0.0
2016-Aug-21 13:28N 35°51' E 014°40'0 0.0
2016-Aug-21 12:31N 35°51' E 014°40'0 0.0
2016-Aug-21 11:31N 35°51' E 014°40'0 0.1
2016-Aug-21 10:31N 35°51' E 014°40'0 0.0
2016-Aug-21 09:31N 35°51' E 014°40'0 0.0
2016-Aug-21 08:31N 35°51' E 014°40'0 0.0
2016-Aug-21 07:31N 35°51' E 014°40'0 0.0
2016-Aug-21 06:31N 35°51' E 014°40'0 0.0
2016-Aug-21 05:31N 35°51' E 014°40'0 0.0
2016-Aug-21 04:31N 35°51' E 014°40'0 0.0
2016-Aug-21 03:31N 35°51' E 014°40'0 0.0
2016-Aug-21 02:28N 35°51' E 014°40'0 0.0
2016-Aug-21 01:31N 35°51' E 014°40'0 0.1
2016-Aug-21 00:31N 35°51' E 014°40'0 0.1
2016-Aug-20 23:31N 35°51' E 014°40'0 0.0
2016-Aug-20 22:31N 35°52' E 014°40'0 0.0
2016-Aug-20 21:31N 35°52' E 014°40'0 0.0
2016-Aug-20 20:31N 35°52' E 014°40'0 0.0
2016-Aug-20 19:31N 35°52' E 014°40'0 0.0
2016-Aug-20 18:28N 35°52' E 014°40'0 0.0
2016-Aug-20 17:28N 35°52' E 014°40'0 0.0
2016-Aug-20 16:31N 35°51' E 014°40'0 0.0
2016-Aug-20 15:28N 35°51' E 014°40'0 0.0
2016-Aug-20 14:25N 35°51' E 014°40'0 0.1
2016-Aug-20 13:33N 35°51' E 014°40'6 5.7
2016-Aug-20 12:34N 35°46' E 014°37'9 8.8
2016-Aug-20 11:33N 35°41' E 014°28'9 9.1
2016-Aug-20 10:33N 35°38' E 014°18'9 9.2
2016-Aug-20 09:33N 35°34' E 014°07'9 9.2
2016-Aug-20 08:34N 35°31' E 013°57'9 9.4
2016-Aug-20 07:34N 35°27' E 013°46'1414.1
2016-Aug-20 06:33N 35°21' E 013°31'1111.1
2016-Aug-20 05:33N 35°16' E 013°18'10 9.7
2016-Aug-20 04:33N 35°12' E 013°08'9 9.5
2016-Aug-20 03:33N 35°07' E 012°57'9 9.3
2016-Aug-20 02:33N 35°03' E 012°47'10 9.6
2016-Aug-20 01:33N 34°59' E 012°37'9 9.3
2016-Aug-20 00:33N 34°56' E 012°26'9 9.1
2016-Aug-19 23:33N 34°52' E 012°16'9 9.0
2016-Aug-19 22:33N 34°48' E 012°06'9 9.0
2016-Aug-19 21:33N 34°45' E 011°56'9 9.5
2016-Aug-19 20:33N 34°39' E 011°46'10 9.6
2016-Aug-19 19:33N 34°35' E 011°36'10 9.6
2016-Aug-19 18:33N 34°30' E 011°26'9 9.2
2016-Aug-19 17:33N 34°27' E 011°16'9 8.7
2016-Aug-19 16:33N 34°25' E 011°05'10 8.4
2016-Aug-19 15:24N 34°26' E 010°53'19 0.4
2016-Aug-17 11:28N 34°44' E 010°46'0 0.0
2016-Aug-16 22:19N 34°44' E 010°46'0 0.0
2016-Aug-16 21:28N 34°44' E 010°46'0 0.0
2016-Aug-16 18:19N 34°44' E 010°46'  

Dump ship's entire track history